Time;durP1;ratioP1;P1;durP2;ratioP2;P2;SDS_P1;SDS_P2;PMS_P1;PMS_P2;Temp;Humidity;BMP_temperature;BMP_pressure;BME280_temperature;BME280_humidity;BME280_pressure;Samples;Min_cycle;Max_cycle;Signal;HPM_P1;HPM_P2
2021/12/11 00:02:15;;;;;;;144.37;26.70;;;-3.40;99.90;;;;;;5016658;28;20200;-77
2021/12/11 00:04:43;;;;;;;129.37;25.07;;;-3.20;99.90;;;;;;5032640;28;20080;-77
2021/12/11 00:07:13;;;;;;;237.17;29.73;;;-3.10;99.90;;;;;;5015609;28;20037;-77
2021/12/11 00:09:45;;;;;;;331.43;30.80;;;-3.10;99.90;;;;;;5032471;28;20499;-77
2021/12/11 00:12:24;;;;;;;269.03;31.13;;;-3.20;99.90;;;;;;5032609;28;20042;-77
2021/12/11 00:15:00;;;;;;;66.40;21.83;;;-3.20;99.90;;;;;;5032455;28;20052;-76
2021/12/11 00:17:31;;;;;;;68.83;24.37;;;-3.30;99.90;;;;;;5032473;28;20049;-78
2021/12/11 00:19:57;;;;;;;55.70;22.53;;;-3.30;99.90;;;;;;5016016;28;20046;-78
2021/12/11 00:22:27;;;;;;;44.70;19.90;;;-3.30;99.90;;;;;;5016017;28;20077;-76
2021/12/11 00:24:59;;;;;;;42.10;19.07;;;-3.40;99.90;;;;;;5033075;28;20065;-77
2021/12/11 00:27:27;;;;;;;41.30;18.63;;;-3.40;99.90;;;;;;5032330;28;20126;-78
2021/12/11 00:29:54;;;;;;;42.17;18.87;;;-3.50;99.90;;;;;;5032546;28;20595;-78
2021/12/11 00:32:29;;;;;;;49.53;19.33;;;-3.50;99.90;;;;;;5032130;28;20053;-77
2021/12/11 00:35:02;;;;;;;41.33;18.40;;;-3.50;99.90;;;;;;5032178;28;20076;-78
2021/12/11 00:37:28;;;;;;;40.38;18.48;;;-3.60;99.90;;;;;;5032060;28;20133;-77
2021/12/11 00:39:59;;;;;;;55.77;20.17;;;-3.70;99.90;;;;;;5016085;28;20475;-78
2021/12/11 00:42:32;;;;;;;49.57;19.33;;;-3.70;99.90;;;;;;5032030;28;20124;-76
2021/12/11 00:44:59;;;;;;;;;;;-3.70;99.90;;;;;;5039528;28;20072;-78
2021/12/11 00:47:34;;;;;;;66.33;23.30;;;-3.80;99.90;;;;;;5051789;28;19920;-78
2021/12/11 00:50:12;;;;;;;56.80;20.03;;;-3.80;99.90;;;;;;5069006;28;20306;-78
2021/12/11 00:52:44;;;;;;;151.60;24.27;;;-3.80;99.90;;;;;;5035193;28;20067;-78
2021/12/11 00:55:23;;;;;;;82.07;21.00;;;-3.70;99.90;;;;;;5051833;28;20052;-76
2021/12/11 00:57:59;;;;;;;61.60;18.80;;;-3.70;99.90;;;;;;5068211;28;20053;-78
2021/12/11 01:00:25;;;;;;;57.93;19.43;;;-3.70;99.90;;;;;;5051612;28;20045;-78
2021/12/11 01:02:53;;;;;;;52.97;21.10;;;-3.70;99.90;;;;;;5068481;28;20115;-77
2021/12/11 01:05:22;;;;;;;66.17;20.23;;;-3.80;99.90;;;;;;5051387;28;20049;-77
2021/12/11 01:07:48;;;;;;;56.70;21.20;;;-3.90;99.90;;;;;;5051353;28;20055;-78
2021/12/11 01:10:23;;;;;;;55.20;20.87;;;-3.90;99.90;;;;;;5068208;28;20087;-76
2021/12/11 01:12:57;;;;;;;60.93;22.20;;;-4.00;99.90;;;;;;5068246;28;20041;-77
2021/12/11 01:15:28;;;;;;;55.83;21.50;;;-4.00;99.90;;;;;;5068218;28;20048;-77
2021/12/11 01:21:25;;;;;;;50.27;19.90;;;-4.10;99.90;;;;;;5051395;28;20048;-77
2021/12/11 01:23:57;;;;;;;61.47;23.63;;;-4.10;99.90;;;;;;5050171;28;20459;-77
2021/12/11 01:26:23;;;;;;;61.57;22.33;;;-4.10;99.90;;;;;;5068049;28;20135;-78
2021/12/11 01:28:50;;;;;;;58.00;21.87;;;-4.10;99.90;;;;;;5068306;28;20438;-77
2021/12/11 01:31:20;;;;;;;70.40;23.77;;;-4.10;99.90;;;;;;5051254;28;20076;-79
2021/12/11 01:33:46;;;;;;;58.33;23.03;;;-4.20;99.90;;;;;;5051205;28;20049;-77
2021/12/11 01:36:12;;;;;;;64.57;22.13;;;-4.30;99.90;;;;;;5051292;28;20037;-77
2021/12/11 01:38:39;;;;;;;56.27;22.63;;;-4.30;99.90;;;;;;5067754;28;20044;-77
2021/12/11 01:41:09;;;;;;;59.73;22.67;;;-4.30;99.90;;;;;;5067983;28;20037;-77
2021/12/11 01:43:37;;;;;;;74.03;25.30;;;-4.20;99.90;;;;;;5051227;28;20049;-77
2021/12/11 01:46:04;;;;;;;76.67;26.80;;;-4.00;99.90;;;;;;5051652;28;20052;-79
2021/12/11 01:48:43;;;;;;;89.90;26.40;;;-4.00;99.90;;;;;;5031210;28;20045;-77
2021/12/11 01:51:22;;;;;;;78.60;26.17;;;-4.00;99.90;;;;;;5031124;28;20092;-79
2021/12/11 01:54:16;;;;;;;56.10;23.87;;;-4.10;99.90;;;;;;5031216;28;20058;-79
2021/12/11 01:56:46;;;;;;;61.07;23.53;;;-4.20;99.90;;;;;;5014745;28;20045;-77
2021/12/11 01:59:18;;;;;;;60.23;23.70;;;-4.20;99.90;;;;;;5031073;28;20060;-78
2021/12/11 02:02:02;;;;;;;51.70;20.63;;;-4.20;99.90;;;;;;5031357;28;20448;-79
2021/12/11 02:04:30;;;;;;;47.93;20.93;;;-4.20;99.90;;;;;;5031163;28;20399;-77
2021/12/11 02:07:00;;;;;;;50.40;21.90;;;-4.20;99.90;;;;;;5031126;28;20045;-79
2021/12/11 02:09:32;;;;;;;55.40;23.73;;;-4.20;99.90;;;;;;5031110;28;20071;-78
2021/12/11 02:12:10;;;;;;;63.03;25.50;;;-4.20;99.90;;;;;;5031064;28;20057;-79
2021/12/11 02:14:41;;;;;;;52.87;24.20;;;-4.20;99.90;;;;;;5031205;28;20052;-77
2021/12/11 02:17:35;;;;;;;53.37;23.23;;;-4.00;99.90;;;;;;5031056;28;20046;-79
2021/12/11 02:20:06;;;;;;;58.93;25.20;;;-4.00;99.90;;;;;;5031054;28;20048;-79
2021/12/11 02:22:38;;;;;;;62.37;27.93;;;-4.00;99.90;;;;;;5014560;28;20080;-77
2021/12/11 02:25:10;;;;;;;56.20;26.73;;;-4.00;99.90;;;;;;5030662;28;20054;-79
2021/12/11 02:27:46;;;;;;;57.42;25.80;;;-4.10;99.90;;;;;;5030875;28;20068;-78
2021/12/11 02:30:18;;;;;;;52.70;25.20;;;-4.20;99.90;;;;;;5030884;28;20079;-79
2021/12/11 02:32:56;;;;;;;60.80;25.80;;;-4.30;99.90;;;;;;5034058;28;20042;-78
2021/12/11 02:35:37;;;;;;;62.00;27.27;;;-4.30;99.90;;;;;;5034350;28;20057;-78
2021/12/11 02:38:13;;;;;;;62.50;28.03;;;-4.30;99.90;;;;;;5034178;28;20038;-78
2021/12/11 02:40:45;;;;;;;59.43;25.90;;;-4.30;99.90;;;;;;5034209;28;20048;-78
2021/12/11 02:43:37;;;;;;;62.10;28.10;;;-4.20;99.90;;;;;;5034117;28;20176;-79
2021/12/11 02:46:15;;;;;;;72.27;29.93;;;-4.30;99.90;;;;;;5066847;28;20084;-79
2021/12/11 02:48:49;;;;;;;72.73;29.37;;;-4.20;99.90;;;;;;5054366;28;20480;-78
2021/12/11 02:51:18;;;;;;;95.27;33.47;;;-4.10;99.90;;;;;;5054051;28;20479;-79
2021/12/11 02:53:54;;;;;;;99.57;35.57;;;-3.80;99.90;;;;;;5053931;28;20043;-79
2021/12/11 02:56:34;;;;;;;101.83;37.23;;;-3.60;99.90;;;;;;5054160;28;20127;-78
2021/12/11 02:59:09;;;;;;;104.27;36.50;;;-3.50;99.90;;;;;;5053790;28;20041;-79
2021/12/11 03:01:41;;;;;;;92.00;36.17;;;-3.50;99.90;;;;;;5053862;28;20033;-79
2021/12/11 03:04:18;;;;;;;74.75;28.80;;;-3.50;99.90;;;;;;5053755;28;20056;-78
2021/12/11 03:06:47;;;;;;;89.77;35.60;;;-3.50;99.90;;;;;;5053647;28;20037;-78
2021/12/11 03:09:17;;;;;;;84.00;33.60;;;-3.50;99.90;;;;;;5037025;28;20491;-78
2021/12/11 03:11:43;;;;;;;84.40;33.40;;;-3.50;99.90;;;;;;5053551;28;20102;-79
2021/12/11 03:14:13;;;;;;;66.33;28.50;;;-3.60;99.90;;;;;;5053692;28;20055;-78
2021/12/11 03:16:40;;;;;;;63.57;30.10;;;-3.70;99.90;;;;;;5053448;28;20041;-78
2021/12/11 03:19:15;;;;;;;60.10;28.07;;;-3.80;99.90;;;;;;5037026;28;20041;-78
2021/12/11 03:21:41;;;;;;;55.57;27.10;;;-3.90;99.90;;;;;;5053498;28;20171;-78
2021/12/11 03:24:08;;;;;;;55.73;26.33;;;-4.00;99.90;;;;;;5052915;28;20084;-79
2021/12/11 03:26:34;;;;;;;63.63;28.90;;;-4.10;99.90;;;;;;5053225;28;20076;-78
2021/12/11 03:29:00;;;;;;;103.27;30.50;;;-4.20;99.90;;;;;;5053323;28;20127;-78
2021/12/11 03:31:26;;;;;;;89.50;31.17;;;-4.30;99.90;;;;;;5053241;28;20045;-78
2021/12/11 03:33:56;;;;;;;64.93;27.03;;;-4.40;99.90;;;;;;5070148;28;20380;-78
2021/12/11 03:36:24;;;;;;;47.20;24.33;;;-4.50;99.90;;;;;;5070075;28;20128;-78
2021/12/11 03:38:58;;;;;;;53.77;24.70;;;-4.60;99.90;;;;;;5036372;28;20094;-79
2021/12/11 03:41:26;;;;;;;70.63;28.87;;;-4.60;99.90;;;;;;5053118;28;20049;-78
2021/12/11 03:43:52;;;;;;;63.60;28.73;;;-4.50;99.90;;;;;;5036563;28;20049;-78
2021/12/11 03:46:20;;;;;;;73.37;31.53;;;-4.50;99.90;;;;;;5034820;28;20064;-77
2021/12/11 03:48:58;;;;;;;54.33;26.33;;;-4.40;99.90;;;;;;5033029;28;20072;-78
2021/12/11 03:51:30;;;;;;;80.20;29.70;;;-4.50;99.90;;;;;;5033322;28;20180;-79
2021/12/11 03:53:57;;;;;;;106.97;35.73;;;-4.50;99.90;;;;;;5033030;28;20041;-78
2021/12/11 03:56:23;;;;;;;99.30;36.50;;;-4.30;99.90;;;;;;5033170;28;20506;-78
2021/12/11 03:58:51;;;;;;;123.73;42.27;;;-4.10;99.90;;;;;;5032863;28;20299;-77
2021/12/11 04:01:30;;;;;;;116.23;41.93;;;-3.90;99.90;;;;;;5032616;28;20128;-78
2021/12/11 04:04:02;;;;;;;110.57;40.50;;;-3.70;99.90;;;;;;5032690;28;20041;-78
2021/12/11 04:06:28;;;;;;;90.50;34.23;;;-3.50;99.90;;;;;;5032584;28;20052;-78
2021/12/11 04:08:55;;;;;;;84.07;31.87;;;-3.50;99.90;;;;;;5032835;28;20484;-78
2021/12/11 04:11:27;;;;;;;88.20;34.53;;;-3.60;99.90;;;;;;5032891;28;20510;-78
2021/12/11 04:13:57;;;;;;;72.30;29.57;;;-3.70;99.90;;;;;;5032833;28;20381;-78
2021/12/11 04:16:23;;;;;;;61.77;27.73;;;-3.80;99.90;;;;;;5032500;28;20051;-78
2021/12/11 04:18:49;;;;;;;57.67;26.80;;;-3.90;99.90;;;;;;5032296;28;20041;-77
2021/12/11 04:21:15;;;;;;;78.13;30.80;;;-4.00;99.90;;;;;;5032251;28;20042;-78
2021/12/11 04:23:41;;;;;;;111.10;38.33;;;-4.20;99.90;;;;;;5032150;28;20057;-78
2021/12/11 04:26:08;;;;;;;85.83;33.07;;;-4.20;99.90;;;;;;5032566;28;20400;-77
2021/12/11 04:28:37;;;;;;;87.83;31.57;;;-4.10;99.90;;;;;;5015791;28;20096;-78
2021/12/11 04:31:08;;;;;;;104.53;37.37;;;-4.10;99.90;;;;;;5032151;28;20132;-78
2021/12/11 04:33:39;;;;;;;109.67;38.20;;;-4.10;99.90;;;;;;5032289;28;20450;-77
2021/12/11 04:36:16;;;;;;;101.60;37.03;;;-4.10;99.90;;;;;;5032224;28;20407;-78
2021/12/11 04:38:43;;;;;;;135.80;41.17;;;-4.10;99.90;;;;;;5032083;28;20076;-77
2021/12/11 04:41:11;;;;;;;114.27;39.80;;;-4.10;99.90;;;;;;5015655;28;20052;-78
2021/12/11 04:43:37;;;;;;;108.23;37.27;;;-4.00;99.90;;;;;;5032144;28;20128;-77
2021/12/11 04:46:06;;;;;;;76.27;29.73;;;-4.00;99.90;;;;;;5047919;28;20560;-78
2021/12/11 04:59:08;;;;;;;44.30;22.80;;;-4.20;99.90;;;;;;5051507;28;20045;-78
2021/12/11 05:07:29;;;;;;;82.10;29.67;;;-4.40;99.90;;;;;;5014014;28;20080;-78
2021/12/11 05:10:12;;;;;;;70.37;29.30;;;-4.40;99.90;;;;;;5045528;28;20513;-77
2021/12/11 05:12:37;;;;;;;108.70;36.50;;;-4.40;99.90;;;;;;5068156;28;20047;-78
2021/12/11 05:15:11;;;;;;;91.40;33.70;;;-4.40;99.90;;;;;;5068268;28;20045;-78
2021/12/11 05:17:37;;;;;;;82.07;30.07;;;-4.40;99.90;;;;;;5068173;28;20054;-78
2021/12/11 05:20:09;;;;;;;89.40;32.50;;;-4.40;99.90;;;;;;5034937;28;20045;-77
2021/12/11 05:22:36;;;;;;;132.10;40.87;;;-4.30;99.90;;;;;;5051501;28;20063;-78
2021/12/11 05:25:03;;;;;;;179.07;46.07;;;-4.20;99.90;;;;;;5051193;28;20049;-76
2021/12/11 05:27:28;;;;;;;142.80;41.50;;;-4.20;99.90;;;;;;5051329;28;20037;-76
2021/12/11 05:29:54;;;;;;;119.70;41.23;;;-4.20;99.90;;;;;;5068068;28;20557;-77
2021/12/11 05:32:24;;;;;;;112.30;39.53;;;-4.30;99.90;;;;;;5068054;28;20083;-77
2021/12/11 05:34:51;;;;;;;332.13;49.33;;;-4.30;99.90;;;;;;5051590;28;20505;-78
2021/12/11 05:37:17;;;;;;;655.80;65.93;;;-4.30;99.90;;;;;;5034576;28;20086;-77
2021/12/11 05:39:43;;;;;;;278.10;48.07;;;-4.30;99.90;;;;;;5034637;28;20049;-77
2021/12/11 05:42:09;;;;;;;227.63;45.67;;;-4.20;99.90;;;;;;5034693;28;20115;-77
2021/12/11 05:44:36;;;;;;;276.10;44.87;;;-4.20;99.90;;;;;;5046967;28;20507;-77
2021/12/11 05:47:04;;;;;;;235.80;42.83;;;-4.20;99.90;;;;;;5014930;28;20120;-77
2021/12/11 05:49:30;;;;;;;420.83;45.90;;;-4.20;99.90;;;;;;5031521;28;20397;-77
2021/12/11 05:51:56;;;;;;;175.90;36.63;;;-4.20;99.90;;;;;;5031299;28;20049;-76
2021/12/11 05:54:26;;;;;;;158.93;37.90;;;-4.30;99.90;;;;;;5031388;28;20233;-78
2021/12/11 05:56:57;;;;;;;164.20;40.50;;;-4.30;99.90;;;;;;5031387;28;20045;-77
2021/12/11 05:59:23;;;;;;;93.67;32.70;;;-4.30;99.90;;;;;;5031301;28;20049;-76
2021/12/11 06:02:00;;;;;;;75.00;29.63;;;-4.30;99.90;;;;;;5031032;28;20132;-77
2021/12/11 06:04:36;;;;;;;80.50;29.30;;;-4.30;99.90;;;;;;5031041;28;20050;-77
2021/12/11 06:07:05;;;;;;;143.47;36.20;;;-4.30;99.90;;;;;;5033575;28;20520;-76
2021/12/11 06:09:30;;;;;;;123.57;34.93;;;-4.20;99.90;;;;;;5018364;28;20038;-77
2021/12/11 06:12:04;;;;;;;177.27;35.97;;;-4.20;99.90;;;;;;5018629;28;20045;-77
2021/12/11 06:14:31;;;;;;;140.47;34.27;;;-4.10;99.90;;;;;;5034864;28;20048;-77
2021/12/11 06:16:58;;;;;;;293.33;44.40;;;-4.10;99.90;;;;;;5018224;28;20041;-77
2021/12/11 06:19:26;;;;;;;152.67;41.73;;;-4.00;99.90;;;;;;5034301;28;20049;-76
2021/12/11 06:21:53;;;;;;;116.87;36.40;;;-4.00;99.90;;;;;;5034878;28;20546;-77
2021/12/11 06:24:20;;;;;;;119.23;35.20;;;-3.90;99.90;;;;;;5034120;28;20073;-77
2021/12/11 06:26:48;;;;;;;159.77;37.13;;;-4.00;99.90;;;;;;5018009;28;20049;-77
2021/12/11 06:29:14;;;;;;;94.33;31.47;;;-4.00;99.90;;;;;;5018112;28;20047;-77
2021/12/11 06:31:43;;;;;;;78.37;29.70;;;-4.00;99.90;;;;;;5034550;28;20084;-76
2021/12/11 06:34:09;;;;;;;87.47;31.07;;;-4.00;99.90;;;;;;5018227;28;20049;-76
2021/12/11 06:36:35;;;;;;;91.87;33.50;;;-4.00;99.90;;;;;;5017805;28;20071;-77
2021/12/11 06:39:06;;;;;;;86.60;32.37;;;-4.10;99.90;;;;;;5017928;28;20049;-77
2021/12/11 06:41:34;;;;;;;91.27;32.83;;;-4.00;99.90;;;;;;5034306;28;20045;-76
2021/12/11 06:44:01;;;;;;;86.67;31.53;;;-4.00;99.90;;;;;;5034270;28;20072;-76
2021/12/11 06:46:27;;;;;;;80.27;30.67;;;-4.00;99.90;;;;;;5037025;28;20045;-76
2021/12/11 06:48:53;;;;;;;77.07;30.70;;;-3.90;99.90;;;;;;5054384;28;20525;-77
2021/12/11 06:51:19;;;;;;;80.53;30.20;;;-4.00;99.90;;;;;;5037487;28;20076;-76
2021/12/11 06:53:55;;;;;;;82.07;33.23;;;-4.00;99.90;;;;;;5070553;28;20076;-77
2021/12/11 06:56:22;;;;;;;85.40;31.10;;;-4.00;99.90;;;;;;5070710;28;20128;-77
2021/12/11 06:58:51;;;;;;;79.73;31.40;;;-3.90;99.90;;;;;;5037329;28;20051;-77
2021/12/11 07:01:18;;;;;;;82.60;32.93;;;-3.90;99.90;;;;;;5070534;28;20049;-77
2021/12/11 07:03:45;;;;;;;94.30;34.20;;;-3.90;99.90;;;;;;5053844;28;20041;-76
2021/12/11 07:06:12;;;;;;;91.57;33.47;;;-3.80;99.90;;;;;;5070803;28;20453;-76
2021/12/11 07:08:39;;;;;;;85.13;33.87;;;-3.80;99.90;;;;;;5053920;28;20487;-76
2021/12/11 07:11:07;;;;;;;91.93;33.80;;;-3.70;99.90;;;;;;5053667;28;20071;-76
2021/12/11 07:13:33;;;;;;;85.80;34.57;;;-3.70;99.90;;;;;;5053626;28;20056;-76
2021/12/11 07:15:58;;;;;;;84.83;33.27;;;-3.70;99.90;;;;;;5054042;28;20088;-76
2021/12/11 07:18:27;;;;;;;83.30;33.77;;;-3.70;99.90;;;;;;5070081;28;20096;-77
2021/12/11 07:20:54;;;;;;;75.73;31.97;;;-3.70;99.90;;;;;;5036972;28;20190;-75
2021/12/11 07:23:20;;;;;;;76.07;30.23;;;-3.70;99.90;;;;;;5053109;28;20061;-76
2021/12/11 07:25:51;;;;;;;78.83;31.50;;;-3.80;99.90;;;;;;5053345;28;20139;-76
2021/12/11 07:28:17;;;;;;;79.00;32.17;;;-3.80;99.90;;;;;;5053379;28;20045;-76
2021/12/11 07:30:46;;;;;;;83.57;34.77;;;-3.80;99.90;;;;;;5036692;28;20140;-77
2021/12/11 07:33:13;;;;;;;87.77;34.80;;;-3.80;99.90;;;;;;5053125;28;20056;-76
2021/12/11 07:35:40;;;;;;;82.37;34.07;;;-3.80;99.90;;;;;;5069894;28;20052;-77
2021/12/11 07:38:06;;;;;;;87.20;33.83;;;-3.80;99.90;;;;;;5053257;28;20465;-77
2021/12/11 07:40:39;;;;;;;98.37;40.17;;;-3.70;99.90;;;;;;5053328;28;20525;-76
2021/12/11 07:43:06;;;;;;;100.90;42.15;;;-3.70;99.90;;;;;;5053050;28;20041;-76
2021/12/11 07:45:33;;;;;;;114.63;42.97;;;-3.70;99.90;;;;;;5040980;28;20045;-76
2021/12/11 07:47:59;;;;;;;118.80;42.77;;;-3.60;99.90;;;;;;5033010;28;20045;-77
2021/12/11 07:50:26;;;;;;;115.80;40.50;;;-3.60;99.90;;;;;;5033009;28;20041;-76
2021/12/11 07:52:52;;;;;;;107.63;40.43;;;-3.50;99.90;;;;;;5016447;28;20041;-77
2021/12/11 07:55:18;;;;;;;101.00;38.57;;;-3.50;99.90;;;;;;5016708;28;20068;-77
2021/12/11 07:57:44;;;;;;;108.70;41.27;;;-3.40;99.90;;;;;;5016373;28;20049;-76
2021/12/11 08:00:16;;;;;;;105.47;39.77;;;-3.40;99.90;;;;;;5032843;28;20095;-76
2021/12/11 08:02:43;;;;;;;102.43;40.60;;;-3.30;99.90;;;;;;5032918;28;20399;-75
2021/12/11 08:05:09;;;;;;;104.33;39.77;;;-3.30;99.90;;;;;;5032682;28;20049;-77
2021/12/11 08:07:35;;;;;;;103.20;39.70;;;-3.30;99.90;;;;;;5032570;28;20060;-76
2021/12/11 08:10:04;;;;;;;105.20;39.70;;;-3.20;99.90;;;;;;5015846;28;20045;-77
2021/12/11 08:12:30;;;;;;;105.13;40.87;;;-3.30;99.90;;;;;;5041264;28;20041;-76
2021/12/11 08:14:56;;;;;;;98.60;39.47;;;-3.20;99.90;;;;;;5060188;28;20445;-76
2021/12/11 08:17:21;;;;;;;116.43;42.43;;;-3.20;99.90;;;;;;5040228;28;20040;-77
2021/12/11 08:19:47;;;;;;;110.67;42.20;;;-3.20;99.90;;;;;;5025543;28;20050;-76
2021/12/11 08:22:13;;;;;;;106.27;41.40;;;-3.20;99.90;;;;;;5032472;28;20041;-75
2021/12/11 08:24:39;;;;;;;111.93;44.20;;;-3.10;99.90;;;;;;5031708;28;20104;-76
2021/12/11 08:27:15;;;;;;;111.57;44.13;;;-3.10;99.90;;;;;;5016277;28;20073;-76
2021/12/11 08:29:43;;;;;;;122.87;46.83;;;-3.00;99.90;;;;;;5031654;28;20042;-76
2021/12/11 08:32:09;;;;;;;132.47;48.47;;;-3.00;99.90;;;;;;5032330;28;20052;-76
2021/12/11 08:34:35;;;;;;;124.07;46.97;;;-2.90;99.90;;;;;;5015810;28;20037;-76
2021/12/11 08:37:04;;;;;;;128.77;46.33;;;-2.80;99.90;;;;;;5031755;28;20057;-76
2021/12/11 08:39:30;;;;;;;127.57;48.27;;;-2.70;99.90;;;;;;5015554;28;20072;-76
2021/12/11 08:41:59;;;;;;;135.30;48.90;;;-2.60;99.90;;;;;;5003864;28;20514;-76
2021/12/11 08:44:25;;;;;;;120.87;47.57;;;-2.50;99.90;;;;;;5020928;28;20079;-76
2021/12/11 08:46:58;;;;;;;134.07;48.60;;;-2.40;99.90;;;;;;5032047;28;20072;-77
2021/12/11 08:49:27;;;;;;;127.20;48.58;;;-2.40;99.90;;;;;;5031974;28;20052;-76
2021/12/11 08:52:12;;;;;;;112.57;42.03;;;-2.30;99.90;;;;;;5031899;28;20045;-76
2021/12/11 08:54:39;;;;;;;133.77;51.43;;;-2.10;99.90;;;;;;5031751;28;20045;-76
2021/12/11 08:57:08;;;;;;;145.47;52.40;;;-2.00;99.90;;;;;;5031846;28;20043;-77
2021/12/11 08:59:48;;;;;;;117.17;42.77;;;-1.80;99.90;;;;;;5031713;28;20046;-76
2021/12/11 09:02:16;;;;;;;150.30;54.33;;;-1.70;99.90;;;;;;5017463;28;20040;-77
2021/12/11 09:04:55;;;;;;;140.70;49.87;;;-1.50;99.90;;;;;;5042400;28;20037;-76
2021/12/11 09:07:30;;;;;;;147.80;52.60;;;-1.50;99.90;;;;;;5015438;28;20068;-76
2021/12/11 09:10:09;;;;;;;134.93;49.67;;;-1.40;99.90;;;;;;5031893;28;20045;-76
2021/12/11 09:12:43;;;;;;;117.33;47.57;;;-1.30;99.90;;;;;;5031909;28;20395;-76
2021/12/11 09:15:24;;;;;;;135.13;51.00;;;-1.20;99.90;;;;;;5031502;28;20056;-76
2021/12/11 09:18:00;;;;;;;125.50;46.73;;;-1.20;99.90;;;;;;5031474;28;20045;-77
2021/12/11 09:20:34;;;;;;;112.17;44.27;;;-1.20;99.90;;;;;;5031434;28;20042;-76
2021/12/11 09:23:28;;;;;;;112.80;44.60;;;-1.10;99.90;;;;;;5031439;28;20038;-76
2021/12/11 09:26:06;;;;;;;137.03;51.87;;;-1.10;99.90;;;;;;5030843;28;20484;-76
2021/12/11 09:28:39;;;;;;;133.27;51.93;;;-1.00;99.90;;;;;;5034866;28;20113;-76
2021/12/11 09:31:23;;;;;;;161.88;64.43;;;-0.90;99.90;;;;;;5031122;28;20049;-76
2021/12/11 09:33:58;;;;;;;125.50;49.07;;;-0.90;99.90;;;;;;5031186;28;20077;-76
2021/12/11 09:36:30;;;;;;;153.23;61.03;;;-0.90;99.90;;;;;;5031475;28;20045;-77
2021/12/11 09:39:07;;;;;;;148.23;59.87;;;-0.80;99.90;;;;;;5014827;28;20045;-77
2021/12/11 09:41:33;;;;;;;176.17;68.20;;;-0.70;99.90;;;;;;5034612;28;20054;-76
2021/12/11 09:44:27;;;;;;;195.70;82.90;;;-0.60;99.90;;;;;;5035244;28;20053;-77
2021/12/11 09:46:55;;;;;;;;;;;-0.60;99.90;;;;;;5015949;28;20056;-76
2021/12/11 09:49:25;;;;;;;205.53;93.10;;;-0.60;99.90;;;;;;5015843;28;20386;-77
2021/12/11 09:52:02;;;;;;;566.40;280.67;;;-0.50;99.90;;;;;;5031915;28;20085;-77
2021/12/11 09:54:31;;;;;;;511.50;268.37;;;-0.40;99.90;;;;;;5015449;28;20116;-76
2021/12/11 09:57:07;;;;;;;170.47;73.33;;;-0.40;99.90;;;;;;5031767;28;20136;-76
2021/12/11 09:59:35;;;;;;;143.07;54.10;;;-0.30;99.90;;;;;;5015316;28;20046;-76
2021/12/11 10:02:22;;;;;;;113.63;46.30;;;-0.30;99.90;;;;;;5031642;28;20049;-76
2021/12/11 10:05:04;;;;;;;79.63;36.30;;;-0.20;99.90;;;;;;4998704;28;20058;-77
2021/12/11 10:07:39;;;;;;;109.13;44.93;;;-0.20;99.90;;;;;;5015133;28;20121;-77
2021/12/11 10:10:13;;;;;;;98.67;43.20;;;-0.20;99.90;;;;;;5014973;28;20084;-76
2021/12/11 10:12:44;;;;;;;136.83;52.60;;;-0.20;99.90;;;;;;5015092;28;20049;-77
2021/12/11 10:15:34;;;;;;;94.90;42.27;;;-0.10;99.90;;;;;;5031466;28;20050;-76
2021/12/11 10:18:05;;;;;;;115.07;47.47;;;-0.10;99.90;;;;;;5031860;28;20488;-77
2021/12/11 10:20:46;;;;;;;91.90;39.00;;;0.00;99.90;;;;;;5031579;28;20492;-77
2021/12/11 10:23:17;;;;;;;90.17;39.67;;;0.10;99.90;;;;;;5014589;28;20038;-77
2021/12/11 10:25:45;;;;;;;105.27;43.37;;;0.20;99.90;;;;;;5014951;28;20096;-77
2021/12/11 10:28:17;;;;;;;125.30;49.33;;;0.30;99.90;;;;;;5031163;28;20057;-78
2021/12/11 10:31:06;;;;;;;118.43;50.23;;;0.40;99.90;;;;;;5015181;28;20104;-77
2021/12/11 10:33:33;;;;;;;119.50;51.20;;;0.60;99.90;;;;;;4998253;28;20058;-77
2021/12/11 10:36:07;;;;;;;113.47;47.67;;;0.80;99.90;;;;;;5014953;28;20467;-78
2021/12/11 10:38:33;;;;;;;101.73;45.87;;;0.90;99.90;;;;;;5014842;28;20383;-78
2021/12/11 10:41:02;;;;;;;104.73;47.50;;;1.00;99.90;;;;;;5014610;28;20092;-78
2021/12/11 10:43:37;;;;;;;76.80;32.80;;;1.10;99.90;;;;;;5014592;28;20077;-77
2021/12/11 10:46:05;;;;;;;78.67;33.63;;;1.20;99.90;;;;;;5030504;28;20132;-78
2021/12/11 10:48:34;;;;;;;79.28;34.28;;;1.20;99.90;;;;;;5034079;28;20045;-77
2021/12/11 10:51:09;;;;;;;84.60;39.53;;;1.20;99.90;;;;;;5034387;28;20447;-77
2021/12/11 10:53:36;;;;;;;83.20;39.33;;;1.20;99.90;;;;;;5050221;28;20049;-77
2021/12/11 10:56:05;;;;;;;99.77;42.63;;;1.10;99.90;;;;;;5034103;28;20044;-77
2021/12/11 10:58:39;;;;;;;96.13;42.63;;;1.20;99.90;;;;;;5033781;28;20114;-78
2021/12/11 11:01:17;;;;;;;82.03;36.30;;;1.30;99.90;;;;;;5024707;28;20045;-77
2021/12/11 11:03:49;;;;;;;93.40;40.47;;;1.40;99.90;;;;;;5053955;28;20041;-78
2021/12/11 11:06:15;;;;;;;85.88;37.67;;;1.50;99.90;;;;;;5053904;28;20084;-78
2021/12/11 11:08:42;;;;;;;58.45;27.20;;;1.50;99.90;;;;;;5061894;28;20041;-78
2021/12/11 11:11:12;;;;;;;46.90;23.25;;;1.60;99.90;;;;;;5032825;28;20045;-78
2021/12/11 11:13:40;;;;;;;28.65;15.90;;;1.60;99.90;;;;;;5024975;28;20084;-78
2021/12/11 11:16:07;;;;;;;25.20;14.10;;;1.70;99.90;;;;;;5032564;28;20049;-78
2021/12/11 11:18:33;;;;;;;29.33;14.32;;;1.60;99.90;;;;;;5016919;28;20056;-79
2021/12/11 11:21:08;;;;;;;59.53;29.52;;;1.60;99.90;;;;;;5033796;28;20050;-78
2021/12/11 11:23:35;;;;;;;65.47;33.25;;;1.50;99.90;;;;;;5033229;28;20091;-78
2021/12/11 11:26:04;;;;;;;59.15;30.00;;;1.50;99.90;;;;;;5017197;28;20041;-78
2021/12/11 11:28:33;;;;;;;47.15;24.90;;;1.50;99.90;;;;;;5033620;28;20072;-78
2021/12/11 11:31:13;;;;;;;54.90;26.83;;;1.50;99.90;;;;;;5033409;28;20046;-78
2021/12/11 11:33:40;;;;;;;65.30;33.15;;;1.50;99.90;;;;;;5033356;28;20041;-78
2021/12/11 11:36:10;;;;;;;67.45;32.40;;;1.50;99.90;;;;;;5017313;28;20482;-79
2021/12/11 11:38:41;;;;;;;63.88;31.27;;;1.60;99.90;;;;;;5033238;28;20049;-78
2021/12/11 11:41:21;;;;;;;84.28;38.83;;;1.60;99.90;;;;;;5033715;28;20081;-78
2021/12/11 11:43:48;;;;;;;50.88;24.88;;;1.60;99.90;;;;;;5033244;28;20049;-78
2021/12/11 11:46:14;;;;;;;55.05;27.08;;;1.60;99.90;;;;;;5033553;28;20056;-78
2021/12/11 11:48:46;;;;;;;47.45;24.88;;;1.50;99.90;;;;;;5016780;28;20471;-79
2021/12/11 11:51:18;;;;;;;56.30;25.05;;;1.50;99.90;;;;;;5033230;28;20041;-79
2021/12/11 11:53:45;;;;;;;42.30;23.40;;;1.50;99.90;;;;;;5016468;28;20049;-79
2021/12/11 11:56:14;;;;;;;62.45;30.75;;;1.50;99.90;;;;;;5033445;28;20606;-79
2021/12/11 11:58:40;;;;;;;46.80;21.92;;;1.50;99.90;;;;;;5033069;28;20484;-79
2021/12/11 12:01:26;;;;;;;35.90;19.60;;;1.50;99.90;;;;;;5032962;28;20048;-79
2021/12/11 12:03:52;;;;;;;42.92;22.88;;;1.60;99.90;;;;;;5015397;28;20052;-79
2021/12/11 12:06:24;;;;;;;47.13;25.23;;;1.60;99.90;;;;;;5032868;28;20052;-79
2021/12/11 12:08:52;;;;;;;33.90;18.42;;;1.70;99.90;;;;;;5016558;28;20555;-79
2021/12/11 12:11:19;;;;;;;54.13;29.60;;;1.90;99.90;;;;;;5016289;28;20049;-79
2021/12/11 12:13:45;;;;;;;24.63;13.75;;;2.00;99.90;;;;;;5032878;28;20057;-79
2021/12/11 12:16:13;;;;;;;32.55;17.77;;;2.10;99.90;;;;;;5032964;28;20050;-79
2021/12/11 12:18:42;;;;;;;47.33;26.48;;;2.20;99.90;;;;;;5032777;28;20538;-79
2021/12/11 12:21:11;;;;;;;52.70;28.08;;;2.20;99.90;;;;;;5032850;28;20470;-79
2021/12/11 12:23:38;;;;;;;38.40;24.02;;;2.10;99.90;;;;;;5032428;28;20519;-80
2021/12/11 12:26:08;;;;;;;60.88;32.40;;;2.20;99.90;;;;;;5032634;28;20053;-80
2021/12/11 12:28:34;;;;;;;45.67;26.48;;;2.50;99.90;;;;;;5032353;28;20056;-80
2021/12/11 12:31:06;;;;;;;35.60;22.23;;;2.80;99.90;;;;;;5016035;28;20041;-80
2021/12/11 12:33:32;;;;;;;51.72;28.15;;;2.70;99.90;;;;;;5016209;28;20510;-80
2021/12/11 12:35:59;;;;;;;46.83;25.55;;;2.70;99.90;;;;;;4999783;28;20132;-81
2021/12/11 12:38:30;;;;;;;40.65;22.90;;;2.70;99.90;;;;;;5015866;28;20037;-80
2021/12/11 12:41:10;;;;;;;39.25;22.50;;;2.70;99.90;;;;;;5032358;28;20037;-80
2021/12/11 12:46:19;;;;;;;32.20;15.70;;;2.50;99.90;;;;;;5049122;28;20053;-80
2021/12/11 12:48:45;;;;;;;40.33;22.10;;;2.50;99.90;;;;;;5032263;28;20392;-80
2021/12/11 12:51:14;;;;;;;43.45;26.48;;;2.40;99.90;;;;;;5031993;28;20041;-80
2021/12/11 12:53:44;;;;;;;41.88;23.90;;;2.30;99.90;;;;;;5032134;28;20130;-81
2021/12/11 12:56:17;;;;;;;31.88;19.42;;;2.20;99.90;;;;;;5032612;28;20530;-81
2021/12/11 12:58:51;;;;;;;30.42;17.63;;;2.20;99.90;;;;;;5015314;28;20053;-79
2021/12/11 13:01:29;;;;;;;50.80;27.80;;;2.20;99.90;;;;;;5031992;28;20052;-81
2021/12/11 13:03:56;;;;;;;45.30;25.60;;;2.10;99.90;;;;;;5015525;28;20044;-80
2021/12/11 13:06:30;;;;;;;56.10;32.92;;;2.10;99.90;;;;;;4999621;28;20208;-81